createdAt,value
2018-12-11T00:02:22.135Z,3.30
2018-12-11T00:04:49.633Z,3.30
2018-12-11T00:07:17.142Z,3.30
2018-12-11T00:09:44.674Z,3.30
2018-12-11T00:12:12.145Z,3.30
2018-12-11T00:14:39.613Z,3.20
2018-12-11T00:17:07.118Z,3.30
2018-12-11T00:19:34.616Z,3.30
2018-12-11T00:22:02.105Z,3.20
2018-12-11T00:24:29.600Z,3.20
2018-12-11T00:26:57.073Z,3.20
2018-12-11T00:29:24.550Z,3.20
2018-12-11T00:31:52.049Z,3.20
2018-12-11T00:34:19.534Z,3.30
2018-12-11T00:36:47.002Z,3.20
2018-12-11T00:39:14.500Z,3.20
2018-12-11T00:41:41.982Z,3.20
2018-12-11T00:44:09.468Z,3.30
2018-12-11T00:46:36.968Z,3.30
2018-12-11T00:49:04.445Z,3.30
2018-12-11T00:51:31.916Z,3.20
2018-12-11T00:53:59.633Z,3.30
2018-12-11T00:56:27.103Z,3.20
2018-12-11T00:58:54.576Z,3.20
2018-12-11T01:01:22.117Z,3.20
2018-12-11T01:03:49.590Z,3.30
2018-12-11T01:06:17.066Z,3.30
2018-12-11T01:08:44.569Z,3.30
2018-12-11T01:11:12.053Z,3.30
2018-12-11T01:13:39.529Z,3.30
2018-12-11T01:16:07.063Z,3.30
2018-12-11T01:18:34.620Z,3.30
2018-12-11T01:21:02.101Z,3.30
2018-12-11T01:23:29.592Z,3.30
2018-12-11T01:25:57.068Z,3.30
2018-12-11T01:28:24.541Z,3.30
2018-12-11T01:30:52.165Z,3.30
2018-12-11T01:33:19.636Z,3.30
2018-12-11T01:35:47.107Z,3.30
2018-12-11T01:38:14.598Z,3.30
2018-12-11T01:40:42.074Z,3.30
2018-12-11T01:43:09.541Z,3.30
2018-12-11T01:45:37.069Z,3.30
2018-12-11T01:48:04.546Z,3.30
2018-12-11T01:50:32.108Z,3.30
2018-12-11T01:52:59.604Z,3.30
2018-12-11T01:55:27.082Z,3.30
2018-12-11T01:57:54.552Z,3.40
2018-12-11T02:00:24.062Z,3.40
2018-12-11T02:02:51.528Z,3.40
2018-12-11T02:05:18.996Z,3.40
2018-12-11T02:07:46.508Z,3.30
2018-12-11T02:10:14.985Z,3.40
2018-12-11T02:12:42.456Z,3.50
2018-12-11T02:15:10.077Z,3.40
2018-12-11T02:17:37.547Z,3.40
2018-12-11T02:20:06.508Z,3.40
2018-12-11T02:22:33.996Z,3.40
2018-12-11T02:25:01.465Z,3.40
2018-12-11T02:27:28.932Z,3.50
2018-12-11T02:29:56.433Z,3.40
2018-12-11T02:32:23.906Z,3.40
2018-12-11T02:34:51.375Z,3.40
2018-12-11T02:37:18.888Z,3.40
2018-12-11T02:39:46.419Z,3.40
2018-12-11T02:42:13.912Z,3.40
2018-12-11T02:44:41.413Z,3.40
2018-12-11T02:47:08.910Z,3.40
2018-12-11T02:49:36.385Z,3.40
2018-12-11T02:52:03.903Z,3.40
2018-12-11T02:54:31.385Z,3.30
2018-12-11T02:56:58.857Z,3.30
2018-12-11T02:59:26.356Z,3.30
2018-12-11T03:01:53.824Z,3.30
2018-12-11T03:04:21.420Z,3.20
2018-12-11T03:06:48.926Z,3.10
2018-12-11T03:09:16.392Z,3.10
2018-12-11T03:11:43.980Z,3.10
2018-12-11T03:14:11.490Z,3.10
2018-12-11T03:16:38.957Z,3.10
2018-12-11T03:19:06.433Z,3.00
2018-12-11T03:21:33.938Z,3.10
2018-12-11T03:24:01.414Z,3.10
2018-12-11T03:26:28.888Z,3.10
2018-12-11T03:28:56.376Z,3.10
2018-12-11T03:31:23.850Z,3.10
2018-12-11T03:33:51.324Z,3.10
2018-12-11T03:36:18.854Z,3.10
2018-12-11T03:38:46.399Z,3.10
2018-12-11T03:41:13.869Z,3.10
2018-12-11T03:43:41.386Z,3.10
2018-12-11T03:46:08.856Z,3.10
2018-12-11T03:48:36.332Z,3.10
2018-12-11T03:51:03.926Z,3.10
2018-12-11T03:53:31.511Z,3.10
2018-12-11T03:55:58.979Z,3.10
2018-12-11T03:58:26.466Z,3.10
2018-12-11T04:00:53.936Z,3.10
2018-12-11T04:03:21.403Z,3.10
2018-12-11T04:05:49.218Z,3.10
2018-12-11T04:08:16.693Z,3.00
2018-12-11T04:10:44.162Z,3.00
2018-12-11T04:13:11.678Z,3.00
2018-12-11T04:15:39.145Z,3.00
2018-12-11T04:18:06.616Z,2.90
2018-12-11T04:20:34.105Z,2.90
2018-12-11T04:23:01.582Z,3.00
2018-12-11T04:25:29.049Z,3.00
2018-12-11T04:27:56.557Z,2.90
2018-12-11T04:30:24.032Z,2.90
2018-12-11T04:32:51.611Z,2.90
2018-12-11T04:35:19.104Z,2.90
2018-12-11T04:37:46.630Z,2.90
2018-12-11T04:40:14.101Z,2.90
2018-12-11T04:42:41.597Z,2.90
2018-12-11T04:45:09.075Z,2.90
2018-12-11T04:47:36.540Z,2.90
2018-12-11T04:50:05.021Z,2.90
2018-12-11T04:52:32.495Z,2.90
2018-12-11T04:55:00.144Z,2.90
2018-12-11T04:57:27.641Z,2.90
2018-12-11T04:59:55.120Z,2.90
2018-12-11T05:02:22.589Z,2.90
2018-12-11T05:04:50.109Z,2.90
2018-12-11T05:07:17.617Z,2.90
2018-12-11T05:09:45.100Z,2.80
2018-12-11T05:12:12.609Z,2.80
2018-12-11T05:14:40.080Z,2.80
2018-12-11T05:17:07.549Z,2.90
2018-12-11T05:19:35.062Z,2.90
2018-12-11T05:22:02.543Z,3.00
2018-12-11T05:24:30.030Z,3.00
2018-12-11T05:26:57.529Z,3.00
2018-12-11T05:29:25.013Z,3.00
2018-12-11T05:31:52.488Z,3.00
2018-12-11T05:34:20.000Z,2.90
2018-12-11T05:36:47.525Z,2.90
2018-12-11T05:39:15.036Z,2.90
2018-12-11T05:41:42.541Z,3.00
2018-12-11T05:44:10.017Z,3.00
2018-12-11T05:46:37.490Z,3.00
2018-12-11T05:49:04.982Z,3.00
2018-12-11T05:51:32.456Z,3.00
2018-12-11T05:53:59.930Z,3.00
2018-12-11T05:56:27.608Z,3.00
2018-12-11T05:58:55.072Z,3.00
2018-12-11T06:01:22.549Z,3.00
2018-12-11T06:03:50.049Z,2.90
2018-12-11T06:06:17.522Z,2.90
2018-12-11T06:08:45.033Z,2.90
2018-12-11T06:11:17.344Z,2.90
2018-12-11T06:13:44.817Z,2.80
2018-12-11T06:16:12.478Z,2.80
2018-12-11T06:18:39.980Z,2.70
2018-12-11T06:21:07.450Z,2.70
2018-12-11T06:23:34.925Z,2.60
2018-12-11T06:26:02.522Z,2.60
2018-12-11T06:28:29.988Z,2.60
2018-12-11T06:30:57.457Z,2.50
2018-12-11T06:33:24.946Z,2.50
2018-12-11T06:35:52.411Z,2.50
2018-12-11T06:38:19.880Z,2.50
2018-12-11T06:40:47.799Z,2.40
2018-12-11T06:43:15.455Z,2.40
2018-12-11T06:45:42.928Z,2.40
2018-12-11T06:48:10.430Z,2.50
2018-12-11T06:50:37.957Z,2.40
2018-12-11T06:53:05.487Z,2.40
2018-12-11T06:55:32.972Z,2.40
2018-12-11T06:58:00.452Z,2.50
2018-12-11T07:00:27.916Z,2.50
2018-12-11T07:02:55.453Z,2.50
2018-12-11T07:05:22.918Z,2.50
2018-12-11T07:07:50.388Z,2.50
2018-12-11T07:10:18.253Z,2.50
2018-12-11T07:12:45.728Z,2.50
2018-12-11T07:15:13.202Z,2.50
2018-12-11T07:17:40.709Z,2.60
2018-12-11T07:20:08.176Z,2.60
2018-12-11T07:22:35.653Z,2.60
2018-12-11T07:25:03.153Z,2.60
2018-12-11T07:27:30.625Z,2.70
2018-12-11T07:29:58.089Z,2.70
2018-12-11T07:32:25.589Z,2.80
2018-12-11T07:34:53.070Z,2.80
2018-12-11T07:37:20.544Z,2.80
2018-12-11T07:39:48.182Z,2.80
2018-12-11T07:42:15.645Z,2.80
2018-12-11T07:44:43.117Z,2.70
2018-12-11T07:47:10.621Z,2.60
2018-12-11T07:49:38.093Z,2.60
2018-12-11T07:52:05.561Z,2.60
2018-12-11T07:54:33.063Z,2.60
2018-12-11T07:57:00.529Z,2.60
2018-12-11T07:59:28.001Z,2.60
2018-12-11T08:01:55.599Z,2.60
2018-12-11T08:04:23.065Z,2.60
2018-12-11T08:06:50.528Z,2.60
2018-12-11T08:09:18.029Z,2.60
2018-12-11T08:11:45.496Z,2.60
2018-12-11T08:14:12.988Z,2.70
2018-12-11T08:16:40.505Z,2.70
2018-12-11T08:19:08.174Z,2.70
2018-12-11T08:21:35.663Z,2.80
2018-12-11T08:24:03.171Z,2.80
2018-12-11T08:26:30.637Z,2.80
2018-12-11T08:28:58.114Z,2.80
2018-12-11T08:31:25.649Z,2.80
2018-12-11T08:33:53.121Z,2.80
2018-12-11T08:36:20.602Z,2.80
2018-12-11T08:38:48.137Z,2.80
2018-12-11T08:41:15.605Z,2.90
2018-12-11T08:43:43.072Z,2.90
2018-12-11T08:46:10.569Z,2.90
2018-12-11T08:48:38.039Z,2.90
2018-12-11T08:51:05.509Z,2.90
2018-12-11T08:53:33.168Z,3.00
2018-12-11T08:56:00.649Z,3.00
2018-12-11T08:58:28.122Z,3.00
2018-12-11T09:00:55.636Z,2.90
2018-12-11T09:03:23.108Z,2.90
2018-12-11T09:05:50.582Z,3.00
2018-12-11T09:08:18.089Z,3.00
2018-12-11T09:10:45.569Z,3.00
2018-12-11T09:13:13.089Z,3.00
2018-12-11T09:15:40.608Z,2.90
2018-12-11T09:18:08.085Z,2.90
2018-12-11T09:20:35.560Z,2.90
2018-12-11T09:23:03.068Z,2.90
2018-12-11T09:25:30.541Z,2.90
2018-12-11T09:27:58.013Z,2.90
2018-12-11T09:30:25.513Z,3.10
2018-12-11T09:32:53.025Z,3.10
2018-12-11T09:35:20.539Z,3.10
2018-12-11T09:37:48.037Z,3.00
2018-12-11T09:40:15.513Z,3.00
2018-12-11T09:42:42.981Z,3.00
2018-12-11T09:45:10.560Z,3.00
2018-12-11T09:47:38.037Z,3.00
2018-12-11T09:50:07.513Z,3.00
2018-12-11T09:52:35.018Z,3.00
2018-12-11T09:55:02.484Z,3.00
2018-12-11T09:57:30.080Z,3.00
2018-12-11T09:59:57.639Z,3.10
2018-12-11T10:02:25.178Z,3.00
2018-12-11T10:04:52.661Z,3.10
2018-12-11T10:07:20.225Z,3.10
2018-12-11T10:09:47.753Z,3.10
2018-12-11T10:12:15.225Z,3.10
2018-12-11T10:14:42.741Z,3.20
2018-12-11T10:17:10.280Z,3.20
2018-12-11T10:19:37.778Z,3.20
2018-12-11T10:22:05.280Z,3.20
2018-12-11T10:24:32.750Z,3.20
2018-12-11T10:27:00.284Z,3.30
2018-12-11T10:29:27.790Z,3.30
2018-12-11T10:31:55.269Z,3.30
2018-12-11T10:34:22.736Z,3.30
2018-12-11T10:36:50.293Z,3.30
2018-12-11T10:39:17.774Z,3.40
2018-12-11T10:41:45.244Z,3.40
2018-12-11T10:44:12.799Z,3.30
2018-12-11T10:46:40.317Z,3.30
2018-12-11T10:49:07.789Z,3.30
2018-12-11T10:51:35.477Z,3.30
2018-12-11T10:54:03.006Z,3.30
2018-12-11T10:56:30.504Z,3.30
2018-12-11T10:58:58.009Z,3.40
2018-12-11T11:01:26.378Z,3.40
2018-12-11T11:03:53.881Z,3.30
2018-12-11T11:06:22.212Z,3.30
2018-12-11T11:08:51.093Z,3.40
2018-12-11T11:11:18.572Z,3.30
2018-12-11T11:13:46.085Z,3.30
2018-12-11T11:16:15.330Z,3.40
2018-12-11T11:18:44.523Z,3.40
2018-12-11T11:21:12.042Z,3.40
2018-12-11T11:23:39.516Z,3.40
2018-12-11T11:26:10.646Z,3.50
2018-12-11T11:28:38.252Z,3.40
2018-12-11T11:31:05.736Z,3.40
2018-12-11T11:33:33.211Z,3.50
2018-12-11T11:36:00.720Z,3.50
2018-12-11T11:38:28.192Z,3.60
2018-12-11T11:40:55.672Z,3.50
2018-12-11T11:43:23.192Z,3.60
2018-12-11T11:45:50.729Z,3.60
2018-12-11T11:48:18.208Z,3.50
2018-12-11T11:50:45.816Z,3.50
2018-12-11T11:53:14.025Z,3.60
2018-12-11T11:55:41.581Z,3.60
2018-12-11T11:58:09.088Z,3.60
2018-12-11T12:00:36.570Z,3.60
2018-12-11T12:03:04.062Z,3.60
2018-12-11T12:05:31.558Z,3.60
2018-12-11T12:07:59.034Z,3.60
2018-12-11T12:10:26.507Z,3.50
2018-12-11T12:12:54.111Z,3.50
2018-12-11T12:15:21.583Z,3.60
2018-12-11T12:17:49.414Z,3.60
2018-12-11T12:20:16.908Z,3.50
2018-12-11T12:22:44.385Z,3.50
2018-12-11T12:25:11.856Z,3.50
2018-12-11T12:27:39.368Z,3.50
2018-12-11T12:30:06.939Z,3.50
2018-12-11T12:32:34.408Z,3.60
2018-12-11T12:35:01.924Z,3.60
2018-12-11T12:37:29.400Z,3.60
2018-12-11T12:39:56.869Z,3.60
2018-12-11T12:42:24.372Z,3.60
2018-12-11T12:44:51.838Z,3.60
2018-12-11T12:47:19.308Z,3.60
2018-12-11T12:49:50.545Z,3.50
2018-12-11T12:52:16.302Z,3.50
2018-12-11T12:54:43.780Z,3.60
2018-12-11T12:57:11.288Z,3.60
2018-12-11T12:59:38.756Z,3.70
2018-12-11T13:02:06.234Z,3.70
2018-12-11T13:04:33.868Z,3.70
2018-12-11T13:07:01.428Z,3.60
2018-12-11T13:09:28.900Z,3.60
2018-12-11T13:11:56.671Z,3.60
2018-12-11T13:14:24.157Z,3.60
2018-12-11T13:16:51.725Z,3.60
2018-12-11T13:19:19.573Z,3.60
2018-12-11T13:21:47.054Z,3.70
2018-12-11T13:24:14.527Z,3.60
2018-12-11T13:26:42.037Z,3.60
2018-12-11T13:29:09.514Z,3.60
2018-12-11T13:31:36.982Z,3.60
2018-12-11T13:34:04.475Z,3.60
2018-12-11T13:36:32.327Z,3.60
2018-12-11T13:39:00.039Z,3.60
2018-12-11T13:41:27.545Z,3.60
2018-12-11T13:43:55.110Z,3.60
2018-12-11T13:46:22.584Z,3.50
2018-12-11T13:48:50.216Z,3.50
2018-12-11T13:51:17.689Z,3.60
2018-12-11T13:53:45.156Z,3.60
2018-12-11T13:56:12.669Z,3.50
2018-12-11T13:58:40.137Z,3.50
2018-12-11T14:01:07.737Z,3.50
2018-12-11T14:03:35.232Z,3.50
2018-12-11T14:06:02.717Z,3.50
2018-12-11T14:08:30.189Z,3.50
2018-12-11T14:10:57.704Z,3.40
2018-12-11T14:13:25.589Z,3.40
2018-12-11T14:15:53.061Z,3.40
2018-12-11T14:18:21.371Z,3.40
2018-12-11T14:20:49.163Z,3.40
2018-12-11T14:23:16.650Z,3.40
2018-12-11T14:25:44.197Z,3.40
2018-12-11T14:28:11.665Z,3.40
2018-12-11T14:30:39.146Z,3.40
2018-12-11T14:33:06.682Z,3.40
2018-12-11T14:35:34.188Z,3.40
2018-12-11T14:38:01.828Z,3.40
2018-12-11T14:40:29.373Z,3.40
2018-12-11T14:42:56.862Z,3.40
2018-12-11T14:45:24.340Z,3.40
2018-12-11T14:47:51.861Z,3.40
2018-12-11T14:50:19.337Z,3.40
2018-12-11T14:52:46.808Z,3.30
2018-12-11T14:55:14.322Z,3.30
2018-12-11T14:57:41.788Z,3.30
2018-12-11T15:00:09.365Z,3.30
2018-12-11T15:02:37.500Z,3.30
2018-12-11T15:05:06.156Z,3.30
2018-12-11T15:07:33.719Z,3.30
2018-12-11T15:10:01.222Z,3.30
2018-12-11T15:12:28.758Z,3.30
2018-12-11T15:14:56.292Z,3.30
2018-12-11T15:17:23.797Z,3.30
2018-12-11T15:19:51.283Z,3.30
2018-12-11T15:22:19.178Z,3.30
2018-12-11T15:24:46.812Z,3.30
2018-12-11T15:27:14.289Z,3.20
2018-12-11T15:29:41.849Z,3.20
2018-12-11T15:32:09.363Z,3.20
2018-12-11T15:34:36.864Z,3.20
2018-12-11T15:37:04.338Z,3.20
2018-12-11T15:39:35.765Z,3.20
2018-12-11T15:42:01.400Z,3.20
2018-12-11T15:44:28.953Z,3.20
2018-12-11T15:46:56.461Z,3.20
2018-12-11T15:49:23.932Z,3.10
2018-12-11T15:51:52.332Z,3.20
2018-12-11T15:54:20.065Z,3.20
2018-12-11T15:56:47.935Z,3.20
2018-12-11T15:59:15.414Z,3.10
2018-12-11T16:01:42.915Z,3.20
2018-12-11T16:04:10.394Z,3.20
2018-12-11T16:06:37.868Z,3.20
2018-12-11T16:09:09.053Z,3.10
2018-12-11T16:11:36.529Z,3.20
2018-12-11T16:14:04.004Z,3.20
2018-12-11T16:16:31.517Z,3.20
2018-12-11T16:18:58.996Z,3.20
2018-12-11T16:21:26.477Z,3.20
2018-12-11T16:23:54.504Z,3.20
2018-12-11T16:26:21.987Z,3.20
2018-12-11T16:28:49.461Z,3.20
2018-12-11T16:31:17.070Z,3.20
2018-12-11T16:33:44.544Z,3.30
2018-12-11T16:36:12.240Z,3.30
2018-12-11T16:38:39.744Z,3.20
2018-12-11T16:41:07.228Z,3.30
2018-12-11T16:43:34.701Z,3.20
2018-12-11T16:46:02.419Z,3.30
2018-12-11T16:48:29.903Z,3.30
2018-12-11T16:50:57.388Z,3.30
2018-12-11T16:53:24.894Z,3.20
2018-12-11T16:55:52.403Z,3.30
2018-12-11T16:58:19.882Z,3.30
2018-12-11T17:00:47.393Z,3.30
2018-12-11T17:03:15.157Z,3.30
2018-12-11T17:05:42.639Z,3.30
2018-12-11T17:08:10.168Z,3.30
2018-12-11T17:10:37.674Z,3.20
2018-12-11T17:13:05.162Z,3.20
2018-12-11T17:15:32.877Z,3.30
2018-12-11T17:18:00.425Z,3.30
2018-12-11T17:20:27.960Z,3.30
2018-12-11T17:22:56.435Z,3.30
2018-12-11T17:25:24.396Z,3.30
2018-12-11T17:27:52.268Z,3.40
2018-12-11T17:30:19.863Z,3.30
2018-12-11T17:32:47.663Z,3.30
2018-12-11T17:35:15.229Z,3.30
2018-12-11T17:37:42.733Z,3.30
2018-12-11T17:40:10.266Z,3.30
2018-12-11T17:42:37.804Z,3.30
2018-12-11T17:45:05.351Z,3.40
2018-12-11T17:47:32.846Z,3.40
2018-12-11T17:50:00.325Z,3.30
2018-12-11T17:52:28.097Z,3.30
2018-12-11T17:54:55.660Z,3.30
2018-12-11T17:57:23.147Z,3.30
2018-12-11T17:59:50.665Z,3.30
2018-12-11T18:02:19.945Z,3.30
2018-12-11T18:04:47.429Z,3.30
2018-12-11T18:07:14.930Z,3.30
2018-12-11T18:09:42.426Z,3.30
2018-12-11T18:12:09.906Z,3.30
2018-12-11T18:14:37.415Z,3.20
2018-12-11T18:17:04.893Z,3.30
2018-12-11T18:19:32.398Z,3.20
2018-12-11T18:21:59.898Z,3.20
2018-12-11T18:24:27.386Z,3.20
2018-12-11T18:26:55.004Z,3.20
2018-12-11T18:29:22.522Z,3.20
2018-12-11T18:31:50.407Z,3.20
2018-12-11T18:34:18.096Z,3.20
2018-12-11T18:36:45.612Z,3.20
2018-12-11T18:39:13.209Z,3.20
2018-12-11T18:41:40.690Z,3.20
2018-12-11T18:44:08.312Z,3.10
2018-12-11T18:46:35.810Z,3.10
2018-12-11T18:49:03.296Z,3.10
2018-12-11T18:51:30.802Z,3.10
2018-12-11T18:53:58.458Z,3.10
2018-12-11T18:56:25.938Z,3.00
2018-12-11T18:58:53.585Z,3.00
2018-12-11T19:01:21.068Z,3.10
2018-12-11T19:03:49.369Z,3.00
2018-12-11T19:06:17.284Z,3.00
2018-12-11T19:08:44.760Z,3.00
2018-12-11T19:11:12.237Z,3.00
2018-12-11T19:13:39.735Z,3.00
2018-12-11T19:16:07.209Z,3.00
2018-12-11T19:18:34.680Z,3.00
2018-12-11T19:21:02.188Z,3.10
2018-12-11T19:23:29.874Z,3.00
2018-12-11T19:25:57.360Z,3.00
2018-12-11T19:28:25.161Z,3.10
2018-12-11T19:30:52.653Z,3.10
2018-12-11T19:33:20.129Z,3.10
2018-12-11T19:35:48.007Z,3.00
2018-12-11T19:38:15.481Z,3.10
2018-12-11T19:40:44.071Z,3.10
2018-12-11T19:43:11.932Z,3.10
2018-12-11T19:45:39.412Z,3.10
2018-12-11T19:48:06.889Z,3.10
2018-12-11T19:50:34.426Z,3.10
2018-12-11T19:53:01.905Z,3.10
2018-12-11T19:55:29.387Z,3.10
2018-12-11T19:57:59.820Z,3.10
2018-12-11T20:00:26.434Z,3.10
2018-12-11T20:02:53.988Z,3.10
2018-12-11T20:05:21.484Z,3.10
2018-12-11T20:07:48.958Z,3.10
2018-12-11T20:10:16.439Z,3.10
2018-12-11T20:12:44.216Z,3.10
2018-12-11T20:15:11.691Z,3.10
2018-12-11T20:17:39.164Z,3.10
2018-12-11T20:20:06.874Z,3.10
2018-12-11T20:22:34.341Z,3.10
2018-12-11T20:25:01.817Z,3.10
2018-12-11T20:27:29.328Z,3.10
2018-12-11T20:29:56.815Z,3.10
2018-12-11T20:32:24.287Z,3.10
2018-12-11T20:34:51.797Z,3.10
2018-12-11T20:37:19.273Z,3.10
2018-12-11T20:39:46.841Z,3.10
2018-12-11T20:42:14.371Z,3.20
2018-12-11T20:44:41.916Z,3.20
2018-12-11T20:47:09.397Z,3.10
2018-12-11T20:49:36.894Z,3.20
2018-12-11T20:52:04.365Z,3.20
2018-12-11T20:54:31.852Z,3.20
2018-12-11T20:56:59.361Z,3.20
2018-12-11T20:59:26.840Z,3.20
2018-12-11T21:01:54.322Z,3.20
2018-12-11T21:04:21.841Z,3.20
2018-12-11T21:06:49.313Z,3.20
2018-12-11T21:09:16.785Z,3.20
2018-12-11T21:11:44.285Z,3.20
2018-12-11T21:14:12.880Z,3.20
2018-12-11T21:16:41.541Z,3.20
2018-12-11T21:19:09.232Z,3.20
2018-12-11T21:21:36.806Z,3.20
2018-12-11T21:24:04.380Z,3.30
2018-12-11T21:26:31.891Z,3.20
2018-12-11T21:28:59.366Z,3.20
2018-12-11T21:31:26.882Z,3.20
2018-12-11T21:33:54.416Z,3.20
2018-12-11T21:36:21.931Z,3.30
2018-12-11T21:38:49.409Z,3.30
2018-12-11T21:41:16.921Z,3.30
2018-12-11T21:43:44.396Z,3.20
2018-12-11T21:46:11.974Z,3.20
2018-12-11T21:48:39.495Z,3.20
2018-12-11T21:51:06.982Z,3.20
2018-12-11T21:53:34.459Z,3.20
2018-12-11T21:56:01.964Z,3.20
2018-12-11T21:58:29.437Z,3.30
2018-12-11T22:00:57.416Z,3.20
2018-12-11T22:03:25.308Z,3.20
2018-12-11T22:05:54.240Z,3.20
2018-12-11T22:08:21.708Z,3.20
2018-12-11T22:10:49.441Z,3.10
2018-12-11T22:13:16.920Z,3.20
2018-12-11T22:15:44.398Z,3.20
2018-12-11T22:18:11.897Z,3.20
2018-12-11T22:20:39.369Z,3.20
2018-12-11T22:23:06.855Z,3.20
2018-12-11T22:25:34.353Z,3.20
2018-12-11T22:28:01.836Z,3.20
2018-12-11T22:30:29.597Z,3.20
2018-12-11T22:32:57.376Z,3.20
2018-12-11T22:35:24.945Z,3.20
2018-12-11T22:37:52.422Z,3.20
2018-12-11T22:40:20.063Z,3.20
2018-12-11T22:42:47.528Z,3.20
2018-12-11T22:45:15.011Z,3.20
2018-12-11T22:47:42.510Z,3.20
2018-12-11T22:50:09.982Z,3.20
2018-12-11T22:52:38.353Z,3.30
2018-12-11T22:55:05.879Z,3.20
2018-12-11T22:57:33.343Z,3.20
2018-12-11T23:00:00.833Z,3.20
2018-12-11T23:02:28.324Z,3.20
2018-12-11T23:04:55.801Z,3.20
2018-12-11T23:07:23.272Z,3.20
2018-12-11T23:09:50.808Z,3.30
2018-12-11T23:12:18.280Z,3.20
2018-12-11T23:14:45.761Z,3.20
2018-12-11T23:17:13.361Z,3.20
2018-12-11T23:19:40.844Z,3.20
2018-12-11T23:22:08.326Z,3.20
2018-12-11T23:24:35.833Z,3.20
2018-12-11T23:27:04.030Z,3.20
2018-12-11T23:29:31.520Z,3.30
2018-12-11T23:31:59.025Z,3.30
2018-12-11T23:34:26.559Z,3.20
2018-12-11T23:36:54.035Z,3.30
2018-12-11T23:39:21.536Z,3.30
2018-12-11T23:41:49.016Z,3.20
2018-12-11T23:44:16.493Z,3.20
2018-12-11T23:46:43.992Z,3.30
2018-12-11T23:49:11.466Z,3.20
2018-12-11T23:51:38.937Z,3.20
2018-12-11T23:54:06.441Z,3.30
2018-12-11T23:56:33.921Z,3.20
2018-12-11T23:59:01.400Z,3.30
